createdAt,value
2022-11-24T07:46:42.740Z,99.99
2022-11-24T07:47:42.738Z,99.99
2022-11-24T07:48:42.723Z,99.99
2022-11-24T07:49:42.709Z,99.99
2022-11-24T07:50:42.704Z,99.99
2022-11-24T07:51:42.691Z,99.99
2022-11-24T07:52:42.688Z,99.99
2022-11-24T07:53:42.670Z,99.99
2022-11-24T07:54:42.663Z,99.99
2022-11-24T07:55:42.652Z,99.99
2022-11-24T07:56:42.640Z,99.99
2022-11-24T07:57:42.729Z,99.99
2022-11-24T07:58:42.616Z,99.99
2022-11-24T07:59:42.604Z,99.99
2022-11-24T08:00:42.599Z,99.99
2022-11-24T08:01:42.631Z,99.99
2022-11-24T08:02:42.580Z,99.99
2022-11-24T08:03:42.773Z,99.99
2022-11-24T08:04:42.561Z,99.99
2022-11-24T08:06:07.805Z,99.99
2022-11-24T08:06:47.169Z,99.99
2022-11-24T08:07:42.585Z,99.99
2022-11-24T08:08:42.528Z,99.99
2022-11-24T08:09:42.620Z,99.99
2022-11-24T08:10:42.498Z,99.99
2022-11-24T08:11:42.486Z,99.99
2022-11-24T08:12:43.849Z,99.99
2022-11-24T08:13:42.481Z,99.99
2022-11-24T08:14:42.458Z,99.99
2022-11-24T08:15:42.448Z,99.99
2022-11-24T08:16:42.531Z,99.99
2022-11-24T08:17:42.436Z,99.99
2022-11-24T08:18:42.416Z,99.99
2022-11-24T08:19:42.406Z,99.99
2022-11-24T08:20:42.394Z,99.99
2022-11-24T08:21:42.384Z,99.99
2022-11-24T08:22:42.380Z,99.99
2022-11-24T08:23:42.376Z,99.99
2022-11-24T08:24:42.355Z,99.99
2022-11-24T08:25:42.350Z,99.99
2022-11-24T08:26:42.341Z,99.99
2022-11-24T08:27:42.325Z,99.99
2022-11-24T08:28:42.321Z,99.99
2022-11-24T08:29:42.408Z,99.99
2022-11-24T08:30:42.301Z,99.99
2022-11-24T08:31:42.335Z,99.99
2022-11-24T08:32:42.273Z,99.99
2022-11-24T08:33:42.262Z,99.99
2022-11-24T08:34:42.254Z,99.99
2022-11-24T08:35:42.255Z,99.99
2022-11-24T08:36:42.238Z,99.99
2022-11-24T08:37:42.224Z,99.99
2022-11-24T08:38:42.216Z,99.99
2022-11-24T08:39:42.307Z,99.99
2022-11-24T08:40:42.198Z,99.99
2022-11-24T08:41:42.180Z,99.99
2022-11-24T08:42:42.181Z,99.99
2022-11-24T08:43:42.165Z,99.99
2022-11-24T08:44:42.156Z,99.99
2022-11-24T08:45:42.341Z,99.99
2022-11-24T08:46:42.169Z,99.99
2022-11-24T08:47:42.128Z,99.99
2022-11-24T08:48:42.112Z,99.99
2022-11-24T08:49:42.203Z,99.99
2022-11-24T08:50:42.098Z,99.99
2022-11-24T08:51:42.087Z,99.99
2022-11-24T08:52:42.075Z,99.99
2022-11-24T08:53:42.064Z,99.99
2022-11-24T08:54:42.056Z,99.99
2022-11-24T08:55:42.039Z,99.99
2022-11-24T08:56:42.031Z,99.99
2022-11-24T08:57:42.024Z,99.99
2022-11-24T08:58:42.086Z,99.99
2022-11-24T08:59:42.000Z,99.99
2022-11-24T09:00:41.990Z,99.99
2022-11-24T09:01:42.033Z,99.99
2022-11-24T09:02:41.967Z,99.99
2022-11-24T09:03:46.578Z,99.99
2022-11-24T09:04:42.059Z,99.99
2022-11-24T09:05:51.781Z,99.99
2022-11-24T09:06:41.935Z,99.99
2022-11-24T09:07:41.940Z,99.99
2022-11-24T09:08:41.908Z,99.99
2022-11-24T09:09:41.914Z,99.99
2022-11-24T09:10:41.891Z,99.99
2022-11-24T09:11:41.884Z,99.99
2022-11-24T09:12:41.870Z,99.99
2022-11-24T09:13:41.863Z,99.99
2022-11-24T09:14:41.952Z,99.99
2022-11-24T09:15:41.833Z,99.99
2022-11-24T09:16:41.871Z,99.99
2022-11-24T09:17:41.816Z,99.99
2022-11-24T09:18:41.817Z,99.99
2022-11-24T09:19:41.797Z,99.99
2022-11-24T09:20:41.791Z,99.99
2022-11-24T09:21:41.773Z,99.99
2022-11-24T09:22:41.771Z,99.99
2022-11-24T09:23:41.754Z,99.99
2022-11-24T09:24:41.850Z,99.99
2022-11-24T09:25:41.738Z,99.99
2022-11-24T09:26:46.060Z,99.99
2022-11-24T09:27:41.718Z,99.99
2022-11-24T09:28:41.710Z,99.99
2022-11-24T09:29:41.701Z,99.99
2022-11-24T09:30:41.757Z,99.99
2022-11-24T09:31:41.676Z,99.99
2022-11-24T09:32:41.671Z,99.99
2022-11-24T09:33:41.663Z,99.99
2022-11-24T09:34:41.652Z,99.99
2022-11-24T09:35:41.635Z,99.99
2022-11-24T09:36:41.731Z,99.99
2022-11-24T09:37:41.617Z,99.99
2022-11-24T09:38:41.607Z,99.99
2022-11-24T09:39:41.598Z,99.99
2022-11-24T09:40:41.595Z,99.99
2022-11-24T09:41:41.579Z,99.99
2022-11-24T09:42:41.671Z,99.99
2022-11-24T09:43:41.561Z,99.99
2022-11-24T09:44:41.567Z,99.99
2022-11-24T09:46:04.478Z,99.99
2022-11-24T09:46:41.571Z,99.99
2022-11-24T09:47:41.517Z,99.99
2022-11-24T09:48:41.618Z,99.99
2022-11-24T09:49:41.499Z,99.99
2022-11-24T09:50:41.489Z,99.99
2022-11-24T09:51:41.480Z,99.99
2022-11-24T09:52:41.469Z,99.99
2022-11-24T09:53:41.566Z,99.99
2022-11-24T09:54:41.451Z,99.99
2022-11-24T09:55:41.441Z,99.99
2022-11-24T09:56:41.440Z,99.99
2022-11-24T09:57:41.425Z,99.99
2022-11-24T09:58:41.414Z,99.99
2022-11-24T09:59:41.399Z,99.99
2022-11-24T10:00:41.392Z,99.99
2022-11-24T10:01:41.435Z,99.99
2022-11-24T10:02:41.378Z,99.99
2022-11-24T10:03:41.365Z,99.99
2022-11-24T10:04:41.414Z,99.99
2022-11-24T10:05:41.349Z,99.99
2022-11-24T10:06:41.341Z,99.99
2022-11-24T10:07:41.526Z,99.99
2022-11-24T10:08:41.417Z,99.99
2022-11-24T10:09:41.309Z,99.99
2022-11-24T10:10:41.303Z,99.99
2022-11-24T10:11:41.288Z,99.99
2022-11-24T10:12:41.280Z,99.99
2022-11-24T10:13:41.270Z,99.99
2022-11-24T10:14:41.263Z,99.99
2022-11-24T10:15:41.387Z,99.99
2022-11-24T10:16:41.248Z,99.99
2022-11-24T10:17:41.231Z,99.99
2022-11-24T10:18:41.323Z,99.99
2022-11-24T10:19:41.367Z,99.99
2022-11-24T10:20:41.202Z,99.99
2022-11-24T10:21:41.196Z,99.99
2022-11-24T10:22:41.190Z,99.99
2022-11-24T10:23:41.182Z,99.99
2022-11-24T10:24:41.175Z,99.99
2022-11-24T10:25:41.164Z,99.99
2022-11-24T10:26:41.157Z,99.99
2022-11-24T10:27:41.146Z,99.99
2022-11-24T10:28:41.252Z,99.99
2022-11-24T10:29:41.121Z,99.99
2022-11-24T10:30:41.149Z,99.99
2022-11-24T10:31:41.110Z,99.99
2022-11-24T10:32:41.094Z,99.99
2022-11-24T10:33:41.092Z,99.99
2022-11-24T10:34:41.081Z,99.99
2022-11-24T10:35:41.072Z,99.99
2022-11-24T10:36:41.058Z,99.99
2022-11-24T10:37:41.048Z,99.99
2022-11-24T10:38:41.150Z,99.99
2022-11-24T10:39:41.029Z,99.99
2022-11-24T10:40:56.395Z,99.99
2022-11-24T10:41:41.013Z,99.99
2022-11-24T10:42:41.010Z,99.99
2022-11-24T10:43:41.000Z,99.99
2022-11-24T10:44:40.989Z,99.99
2022-11-24T10:45:40.984Z,99.99
2022-11-24T10:46:40.993Z,99.99
2022-11-24T10:47:40.959Z,99.99
2022-11-24T10:48:40.949Z,99.99
2022-11-24T10:49:40.944Z,99.99
2022-11-24T10:50:40.928Z,99.99
2022-11-24T10:51:40.942Z,99.99
2022-11-24T10:52:40.914Z,99.99
2022-11-24T10:53:40.905Z,99.99
2022-11-24T10:54:41.529Z,99.99
2022-11-24T10:55:40.886Z,99.99
2022-11-24T10:56:40.881Z,99.99
2022-11-24T10:57:40.873Z,99.99
2022-11-24T10:58:40.958Z,99.99
2022-11-24T10:59:40.858Z,99.99
2022-11-24T11:00:40.848Z,99.99
2022-11-24T11:01:40.984Z,99.99
2022-11-24T11:02:40.859Z,99.99
2022-11-24T11:03:40.821Z,99.99
2022-11-24T11:04:40.855Z,99.99
2022-11-24T11:05:40.796Z,99.99
2022-11-24T11:06:40.800Z,99.99
2022-11-24T11:07:40.819Z,99.99
2022-11-24T11:08:40.877Z,99.99
2022-11-24T11:09:40.765Z,99.99
2022-11-24T11:10:40.766Z,99.99
2022-11-24T11:11:40.751Z,99.99
2022-11-24T11:12:44.983Z,99.99
2022-11-24T11:13:40.836Z,99.99
2022-11-24T11:14:40.722Z,99.99
2022-11-24T11:15:40.736Z,99.99
2022-11-24T11:16:40.710Z,99.99
2022-11-24T11:17:40.695Z,99.99
2022-11-24T11:18:40.688Z,99.99
2022-11-24T11:19:49.080Z,99.99
2022-11-24T11:20:40.672Z,99.99
2022-11-24T11:21:40.663Z,99.99
2022-11-24T11:22:40.656Z,99.99
2022-11-24T11:23:40.650Z,99.99
2022-11-24T11:24:40.738Z,99.99
2022-11-24T11:25:40.628Z,99.99
2022-11-24T11:26:40.630Z,99.99
2022-11-24T11:27:40.616Z,99.99
2022-11-24T11:28:40.601Z,99.99
2022-11-24T11:31:40.884Z,99.99
2022-11-24T11:34:40.758Z,99.99
2022-11-24T11:35:40.648Z,99.99
2022-11-24T11:36:40.547Z,99.99
2022-11-24T11:37:40.562Z,99.99
2022-11-24T11:38:40.658Z,99.99
2022-11-24T11:39:45.337Z,99.99
2022-11-24T11:40:40.509Z,99.99
2022-11-24T11:41:40.530Z,99.99
2022-11-24T11:43:40.484Z,99.99
2022-11-24T11:44:40.508Z,99.99
2022-11-24T11:45:40.522Z,99.99
2022-11-24T11:46:40.548Z,99.99
2022-11-24T11:47:40.454Z,99.99
2022-11-24T11:48:43.729Z,99.99
2022-11-24T11:49:40.439Z,99.99
2022-11-24T11:51:06.609Z,99.99
2022-11-24T11:51:40.476Z,99.99
2022-11-24T11:52:40.426Z,99.99
2022-11-24T11:53:40.416Z,99.99
2022-11-24T11:54:40.400Z,99.99
2022-11-24T11:55:43.985Z,99.99
2022-11-24T11:56:40.420Z,99.99
2022-11-24T11:57:40.382Z,99.99
2022-11-24T11:58:40.379Z,99.99
2022-11-24T11:59:40.365Z,99.99
2022-11-24T12:00:40.362Z,99.99
2022-11-24T12:01:40.359Z,99.99
2022-11-24T12:02:40.440Z,99.99
2022-11-24T12:03:40.539Z,99.99
2022-11-24T12:04:40.333Z,99.99
2022-11-24T12:05:40.326Z,99.99
2022-11-24T12:06:40.317Z,99.99
2022-11-24T12:07:40.353Z,99.99
2022-11-24T12:09:11.584Z,99.99
2022-11-24T12:09:40.300Z,99.99
2022-11-24T12:10:40.390Z,99.99
2022-11-24T12:11:40.289Z,99.99
2022-11-24T12:12:40.269Z,99.99
2022-11-24T12:13:40.270Z,99.99
2022-11-24T12:14:40.269Z,99.99
2022-11-24T12:15:40.351Z,99.99
2022-11-24T12:16:40.250Z,99.99
2022-11-24T12:17:40.239Z,99.99
2022-11-24T12:18:57.082Z,99.55
2022-11-24T12:19:40.238Z,99.31
2022-11-24T12:20:40.221Z,97.57
2022-11-24T12:21:40.221Z,97.13
2022-11-24T12:22:40.216Z,96.26
2022-11-24T12:23:40.212Z,95.68
2022-11-24T12:24:40.225Z,94.85
2022-11-24T12:25:40.291Z,95.15
2022-11-24T12:26:40.187Z,95.34
2022-11-24T12:27:40.189Z,94.32
2022-11-24T12:28:40.174Z,92.58
2022-11-24T12:29:40.166Z,92.67
2022-11-24T12:30:40.160Z,91.55
2022-11-24T12:31:40.175Z,90.78
2022-11-24T12:32:40.151Z,91.27
2022-11-24T12:33:40.149Z,90.73
2022-11-24T12:34:40.139Z,90.10
2022-11-24T12:35:40.130Z,90.00
2022-11-24T12:36:40.127Z,90.34
2022-11-24T12:37:40.134Z,89.96
2022-11-24T12:38:40.116Z,91.56
2022-11-24T12:39:40.116Z,91.85
2022-11-24T12:40:46.425Z,93.11
2022-11-24T12:41:42.141Z,92.87
2022-11-24T12:42:40.095Z,93.55
2022-11-24T12:43:40.093Z,93.94
2022-11-24T12:44:40.099Z,95.10
2022-11-24T12:45:40.189Z,94.23
2022-11-24T12:46:40.119Z,94.04
2022-11-24T12:47:40.065Z,93.94
2022-11-24T12:48:40.070Z,94.47
2022-11-24T12:49:40.070Z,94.28
2022-11-24T12:50:40.047Z,95.49
2022-11-24T12:51:40.049Z,95.78
2022-11-24T12:52:40.047Z,95.29
2022-11-24T12:53:40.043Z,96.17
2022-11-24T12:54:40.027Z,96.51
2022-11-24T12:55:40.029Z,97.18
2022-11-24T12:56:40.027Z,96.84
2022-11-24T12:57:40.021Z,96.55
2022-11-24T12:58:39.999Z,96.36
2022-11-24T12:59:40.015Z,97.42
2022-11-24T13:00:39.992Z,95.83
2022-11-24T13:01:40.130Z,93.99
2022-11-24T13:02:40.117Z,93.70
2022-11-24T13:03:39.983Z,93.65
2022-11-24T13:04:39.996Z,92.92
2022-11-24T13:05:39.967Z,91.37
2022-11-24T13:06:44.369Z,91.47
2022-11-24T13:07:40.006Z,91.17
2022-11-24T13:08:39.945Z,90.73
2022-11-24T13:09:39.947Z,90.64
2022-11-24T13:10:55.344Z,90.16
2022-11-24T13:11:39.932Z,90.30
2022-11-24T13:12:39.931Z,90.40
2022-11-24T13:13:39.944Z,90.64
2022-11-24T13:14:39.909Z,91.37
2022-11-24T13:15:45.983Z,91.03
2022-11-24T13:16:53.669Z,91.42
2022-11-24T13:18:02.570Z,91.95
2022-11-24T13:18:39.942Z,91.37
2022-11-24T13:19:39.896Z,91.37
2022-11-24T13:20:39.881Z,90.34
2022-11-24T13:21:39.891Z,89.23
2022-11-24T13:22:39.873Z,88.55
2022-11-24T13:23:39.869Z,87.58
2022-11-24T13:24:40.049Z,87.48
2022-11-24T13:25:40.016Z,87.58
2022-11-24T13:26:41.753Z,87.87
2022-11-24T13:27:39.852Z,87.44
2022-11-24T13:29:01.411Z,87.63
2022-11-24T13:29:39.848Z,88.02
2022-11-24T13:30:39.932Z,88.41
2022-11-24T13:31:39.891Z,87.77
2022-11-24T13:32:39.825Z,86.90
2022-11-24T13:33:39.820Z,86.02
2022-11-24T13:34:39.812Z,86.02
2022-11-24T13:35:39.811Z,86.71
2022-11-24T13:36:39.803Z,86.85
2022-11-24T13:37:39.799Z,85.39
2022-11-24T13:38:39.800Z,85.33
2022-11-24T13:39:43.655Z,85.33
2022-11-24T13:40:43.166Z,85.92
2022-11-24T13:41:39.776Z,85.14
2022-11-24T13:42:42.287Z,85.24
2022-11-24T13:43:39.765Z,83.25
2022-11-24T13:44:39.767Z,84.38
2022-11-24T13:45:40.072Z,85.54
2022-11-24T13:46:39.884Z,86.16
2022-11-24T13:47:39.754Z,86.46
2022-11-24T13:48:39.748Z,86.16
2022-11-24T13:49:39.740Z,85.43
2022-11-24T13:50:39.742Z,85.08
2022-11-24T13:51:39.729Z,82.50
2022-11-24T13:52:39.725Z,82.17
2022-11-24T13:53:39.723Z,82.56
2022-11-24T13:54:39.718Z,83.34
2022-11-24T13:55:39.714Z,82.95
2022-11-24T13:56:39.704Z,82.37
2022-11-24T13:57:39.704Z,82.62
2022-11-24T13:58:39.708Z,82.71
2022-11-24T13:59:39.698Z,83.97
2022-11-24T14:00:39.694Z,83.97
2022-11-24T14:01:39.849Z,83.39
2022-11-24T14:02:39.737Z,84.12
2022-11-24T14:03:39.694Z,84.96
2022-11-24T14:04:39.672Z,86.02
2022-11-24T14:05:39.671Z,86.51
2022-11-24T14:06:39.672Z,86.90
2022-11-24T14:07:39.693Z,86.99
2022-11-24T14:08:39.657Z,86.47
2022-11-24T14:09:39.648Z,87.48
2022-11-24T14:10:39.652Z,87.29
2022-11-24T14:11:39.639Z,87.48
2022-11-24T14:12:39.647Z,87.15
2022-11-24T14:13:39.630Z,88.60
2022-11-24T14:14:39.630Z,88.70
2022-11-24T14:15:39.669Z,89.76
2022-11-24T14:16:39.614Z,89.57
2022-11-24T14:17:39.611Z,88.89
2022-11-24T14:18:39.608Z,88.31
2022-11-24T14:19:39.601Z,87.92
2022-11-24T14:20:39.601Z,86.47
2022-11-24T14:21:39.597Z,87.24
2022-11-24T14:22:39.593Z,87.92
2022-11-24T14:23:39.588Z,87.34
2022-11-24T14:24:41.525Z,87.48
2022-11-24T14:25:39.573Z,87.09
2022-11-24T14:26:39.571Z,86.61
2022-11-24T14:27:39.569Z,86.57
2022-11-24T14:28:39.613Z,86.86
2022-11-24T14:29:39.557Z,86.76
2022-11-24T14:30:39.548Z,87.44
2022-11-24T14:31:39.587Z,87.44
2022-11-24T14:32:39.635Z,86.95
2022-11-24T14:33:39.542Z,87.48
2022-11-24T14:34:39.731Z,87.38
2022-11-24T14:35:39.568Z,87.38
2022-11-24T14:36:39.512Z,87.29
2022-11-24T14:37:39.512Z,87.38
2022-11-24T14:38:39.506Z,86.75
2022-11-24T14:39:39.504Z,86.22
2022-11-24T14:40:39.499Z,86.41
2022-11-24T14:41:39.509Z,86.12
2022-11-24T14:42:39.483Z,86.80
2022-11-24T14:43:39.486Z,86.22
2022-11-24T14:44:39.489Z,86.32
2022-11-24T14:45:39.479Z,86.90
2022-11-24T14:46:39.499Z,86.90
2022-11-24T14:47:39.461Z,86.51
2022-11-24T14:48:39.457Z,85.74
2022-11-24T14:49:39.453Z,85.54
2022-11-24T14:50:39.725Z,85.93
2022-11-24T14:51:39.444Z,86.12
2022-11-24T14:52:39.444Z,86.85
2022-11-24T14:53:39.442Z,84.52
2022-11-24T14:54:39.440Z,83.06
2022-11-24T14:55:39.428Z,82.42
2022-11-24T14:56:39.436Z,83.59
2022-11-24T14:57:39.526Z,83.39
2022-11-24T14:58:42.426Z,83.78
2022-11-24T14:59:39.408Z,83.88
2022-11-24T15:00:39.466Z,83.49
2022-11-24T15:01:39.479Z,82.52
2022-11-24T15:02:39.431Z,82.95
2022-11-24T15:03:39.390Z,82.85
2022-11-24T15:05:01.442Z,83.53
2022-11-24T15:05:39.383Z,83.04
2022-11-24T15:06:39.377Z,82.81
2022-11-24T15:07:39.473Z,83.10
2022-11-24T15:08:39.369Z,83.29
2022-11-24T15:09:39.360Z,82.52
2022-11-24T15:10:39.359Z,82.62
2022-11-24T15:11:39.356Z,82.71
2022-11-24T15:12:39.450Z,83.00
2022-11-24T15:13:39.347Z,83.39
2022-11-24T15:14:39.342Z,83.78
2022-11-24T15:15:39.336Z,82.87
2022-11-24T15:16:39.405Z,83.40
2022-11-24T15:17:39.334Z,84.63
2022-11-24T15:18:39.326Z,84.63
2022-11-24T15:19:39.319Z,85.21
2022-11-24T15:20:39.313Z,84.82
2022-11-24T15:21:39.309Z,85.50
2022-11-24T15:22:39.308Z,86.71
2022-11-24T15:23:39.302Z,87.29
2022-11-24T15:24:39.305Z,87.68
2022-11-24T15:25:39.289Z,85.15
2022-11-24T15:26:42.138Z,83.89
2022-11-24T15:27:39.286Z,84.09
2022-11-24T15:28:39.277Z,84.09
2022-11-24T15:29:39.279Z,84.57
2022-11-24T15:30:39.266Z,85.25
2022-11-24T15:31:39.383Z,84.57
2022-11-24T15:32:39.361Z,83.99
2022-11-24T15:33:39.256Z,84.57
2022-11-24T15:34:39.243Z,84.09
2022-11-24T15:35:39.244Z,84.67
2022-11-24T15:36:39.237Z,85.64
2022-11-24T15:37:39.233Z,85.44
2022-11-24T15:38:39.235Z,85.35
2022-11-24T15:39:39.226Z,85.06
2022-11-24T15:40:39.220Z,84.67
2022-11-24T15:41:39.214Z,84.42
2022-11-24T15:42:39.309Z,84.22
2022-11-24T15:43:39.203Z,84.81
2022-11-24T15:44:39.194Z,84.22
2022-11-24T15:45:39.196Z,84.71
2022-11-24T15:46:39.230Z,84.32
2022-11-24T15:47:39.186Z,84.81
2022-11-24T15:48:39.184Z,85.97
2022-11-24T15:49:39.176Z,86.12
2022-11-24T15:50:39.179Z,86.12
2022-11-24T15:51:39.167Z,86.61
2022-11-24T15:52:39.165Z,87.29
2022-11-24T15:53:39.178Z,87.29
2022-11-24T15:54:39.161Z,87.19
2022-11-24T15:55:39.158Z,87.87
2022-11-24T15:56:39.145Z,87.43
2022-11-24T15:57:39.137Z,87.23
2022-11-24T15:58:39.134Z,87.58
2022-11-24T15:59:39.139Z,88.06
2022-11-24T16:00:39.159Z,88.20
2022-11-24T16:01:39.229Z,88.30
2022-11-24T16:02:39.183Z,87.62
2022-11-24T16:03:46.888Z,87.52
2022-11-24T16:04:39.100Z,87.91
2022-11-24T16:05:39.107Z,88.45
2022-11-24T16:06:39.108Z,88.35
2022-11-24T16:07:39.177Z,87.96
2022-11-24T16:08:39.091Z,88.84
2022-11-24T16:09:39.080Z,89.42
2022-11-24T16:10:39.081Z,89.71
2022-11-24T16:11:39.067Z,90.00
2022-11-24T16:12:39.066Z,90.00
2022-11-24T16:13:39.090Z,90.00
2022-11-24T16:14:39.336Z,88.88
2022-11-24T16:15:39.049Z,88.79
2022-11-24T16:16:39.078Z,88.69
2022-11-24T16:17:39.045Z,89.56
2022-11-24T16:18:39.045Z,88.79
2022-11-24T16:19:42.037Z,87.72
2022-11-24T16:20:39.031Z,87.47
2022-11-24T16:21:39.024Z,87.57
2022-11-24T16:22:39.120Z,86.99
2022-11-24T16:23:39.026Z,86.94
2022-11-24T16:24:39.007Z,86.21
2022-11-24T16:25:39.008Z,86.01
2022-11-24T16:26:39.012Z,86.99
2022-11-24T16:27:38.995Z,86.99
2022-11-24T16:28:38.995Z,86.79
2022-11-24T16:29:38.999Z,85.43
2022-11-24T16:30:38.997Z,85.14
2022-11-24T16:31:39.019Z,84.56
2022-11-24T16:32:38.979Z,84.66
2022-11-24T16:33:38.970Z,85.33
2022-11-24T16:34:38.965Z,85.43
2022-11-24T16:35:38.965Z,84.79
2022-11-24T16:36:38.969Z,84.11
2022-11-24T16:37:38.965Z,84.50
2022-11-24T16:38:38.970Z,83.53
2022-11-24T16:39:38.958Z,84.79
2022-11-24T16:40:38.952Z,83.59
2022-11-24T16:41:38.945Z,83.10
2022-11-24T16:42:38.945Z,84.07
2022-11-24T16:43:38.935Z,83.69
2022-11-24T16:44:38.937Z,84.36
2022-11-24T16:45:45.034Z,84.17
2022-11-24T16:46:38.922Z,84.91
2022-11-24T16:47:39.019Z,86.16
2022-11-24T16:48:38.918Z,86.85
2022-11-24T16:49:38.917Z,86.65
2022-11-24T16:50:38.906Z,86.75
2022-11-24T16:51:38.898Z,87.48
2022-11-24T16:52:38.907Z,87.52
2022-11-24T16:53:38.896Z,87.91
2022-11-24T16:54:38.899Z,90.10
2022-11-24T16:55:38.885Z,91.65
2022-11-24T16:56:38.888Z,91.31
2022-11-24T16:57:38.878Z,91.89
2022-11-24T16:58:38.873Z,92.58
2022-11-24T16:59:38.864Z,92.58
2022-11-24T17:00:38.861Z,92.58
2022-11-24T17:01:38.953Z,92.96
2022-11-24T17:02:38.937Z,93.45
2022-11-24T17:03:38.849Z,94.13
2022-11-24T17:04:38.838Z,94.81
2022-11-24T17:05:38.835Z,95.39
2022-11-24T17:06:38.842Z,95.39
2022-11-24T17:07:38.880Z,95.92
2022-11-24T17:08:38.826Z,96.60
2022-11-24T17:09:40.851Z,96.60
2022-11-24T17:10:38.815Z,97.42
2022-11-24T17:11:38.809Z,97.62
2022-11-24T17:12:38.806Z,98.30
2022-11-24T17:13:38.798Z,97.71
2022-11-24T17:14:38.803Z,97.76
2022-11-24T17:15:45.291Z,97.96
2022-11-24T17:16:38.898Z,98.93
2022-11-24T17:17:55.201Z,99.21
2022-11-24T17:18:38.919Z,99.51
2022-11-24T17:19:38.758Z,99.99
2022-11-24T17:20:38.758Z,99.99
2022-11-24T17:21:38.752Z,99.55
2022-11-24T17:22:38.743Z,99.99
2022-11-24T17:23:38.740Z,99.99
2022-11-24T17:24:38.740Z,99.99
2022-11-24T17:25:38.737Z,99.99
2022-11-24T17:26:38.736Z,99.99
2022-11-24T17:27:38.712Z,99.99
2022-11-24T17:28:38.731Z,99.99
2022-11-24T17:29:38.712Z,99.99
2022-11-24T17:30:38.706Z,99.99
2022-11-24T17:31:38.723Z,99.99
2022-11-24T17:32:38.702Z,99.99
2022-11-24T17:33:38.686Z,99.99
2022-11-24T17:34:38.679Z,99.99
2022-11-24T17:35:39.025Z,99.99
2022-11-24T17:36:38.677Z,99.99
2022-11-24T17:37:38.656Z,99.99
2022-11-24T17:38:38.657Z,99.99
2022-11-24T17:39:38.642Z,99.99
2022-11-24T17:40:38.643Z,99.99
2022-11-24T17:41:38.630Z,99.99
2022-11-24T17:42:38.628Z,99.99
2022-11-24T17:43:38.617Z,99.99
2022-11-24T17:44:38.614Z,99.99
2022-11-24T17:45:38.689Z,99.99
2022-11-24T17:46:38.607Z,99.99
2022-11-24T17:47:38.593Z,99.99
2022-11-24T17:48:38.590Z,99.99
2022-11-24T17:49:38.688Z,99.99
2022-11-24T17:50:38.574Z,99.99
2022-11-24T17:51:38.568Z,99.99
2022-11-24T17:52:38.567Z,99.99
2022-11-24T17:53:38.558Z,99.99
2022-11-24T17:54:46.320Z,99.99
2022-11-24T17:55:38.548Z,99.99
2022-11-24T17:56:38.534Z,99.99
2022-11-24T17:57:38.529Z,99.99
2022-11-24T17:58:42.690Z,99.99
2022-11-24T17:59:38.616Z,99.99
2022-11-24T18:00:38.572Z,99.99
2022-11-24T18:01:38.604Z,99.99
2022-11-24T18:02:38.548Z,99.99
2022-11-24T18:03:38.497Z,99.99
2022-11-24T18:04:38.481Z,99.99
2022-11-24T18:05:38.475Z,99.99
2022-11-24T18:06:38.479Z,99.99
2022-11-24T18:07:38.504Z,99.99
2022-11-24T18:08:38.458Z,99.99
2022-11-24T18:09:38.545Z,99.99
2022-11-24T18:10:38.446Z,99.99
2022-11-24T18:11:38.439Z,99.99
2022-11-24T18:12:38.433Z,99.99
2022-11-24T18:13:56.637Z,99.99
2022-11-24T18:14:38.421Z,99.99
2022-11-24T18:15:38.415Z,99.99
2022-11-24T18:16:38.441Z,99.99
2022-11-24T18:17:38.402Z,99.99
2022-11-24T18:18:40.347Z,99.99
2022-11-24T18:19:38.389Z,99.99
2022-11-24T18:20:38.382Z,99.99
2022-11-24T18:21:38.369Z,99.99
2022-11-24T18:23:06.375Z,99.99
2022-11-24T18:23:38.360Z,99.99
2022-11-24T18:24:38.585Z,99.99
2022-11-24T18:25:38.346Z,99.99
2022-11-24T18:26:38.347Z,99.99
2022-11-24T18:27:38.345Z,99.99
2022-11-24T18:28:38.333Z,99.99
2022-11-24T18:29:38.317Z,99.99
2022-11-24T18:30:38.317Z,99.99
2022-11-24T18:31:38.392Z,99.99
2022-11-24T18:32:38.302Z,99.99
2022-11-24T18:33:38.295Z,99.99
2022-11-24T18:34:38.395Z,99.99
2022-11-24T18:35:38.286Z,99.99
2022-11-24T18:36:38.281Z,99.99
2022-11-24T18:37:38.273Z,99.99
2022-11-24T18:38:38.272Z,99.99
2022-11-24T18:39:38.261Z,99.99
2022-11-24T18:40:38.247Z,99.99
2022-11-24T18:41:38.259Z,99.99
2022-11-24T18:42:38.238Z,99.99
2022-11-24T18:43:38.239Z,99.99
2022-11-24T18:44:38.327Z,99.99
2022-11-24T18:45:38.235Z,99.99
2022-11-24T18:46:38.214Z,99.99
2022-11-24T18:47:38.205Z,99.99
2022-11-24T18:48:38.197Z,99.99
2022-11-24T18:49:38.186Z,99.99
2022-11-24T18:50:38.185Z,99.99
2022-11-24T18:51:38.176Z,99.99
2022-11-24T18:52:38.169Z,99.99
2022-11-24T18:53:38.156Z,99.99
2022-11-24T18:54:38.252Z,99.99
2022-11-24T18:55:38.152Z,99.99
2022-11-24T18:56:38.136Z,99.99
2022-11-24T18:57:38.142Z,99.99
2022-11-24T18:58:38.126Z,99.99
2022-11-24T18:59:38.111Z,99.99
2022-11-24T19:00:38.115Z,99.99
2022-11-24T19:01:38.156Z,99.99
2022-11-24T19:02:38.177Z,99.99
2022-11-24T19:03:38.084Z,99.99
2022-11-24T19:04:38.163Z,99.99
2022-11-24T19:05:38.079Z,99.99
2022-11-24T19:06:38.064Z,99.99
2022-11-24T19:07:38.088Z,99.99
2022-11-24T19:08:38.046Z,99.99
2022-11-24T19:09:38.037Z,99.99
2022-11-24T19:10:38.040Z,99.99
2022-11-24T19:11:38.030Z,99.99
2022-11-24T19:12:38.024Z,99.99
2022-11-24T19:13:38.017Z,99.99
2022-11-24T19:14:38.106Z,99.99
2022-11-24T19:15:38.002Z,99.99
2022-11-24T19:16:38.064Z,99.99
2022-11-24T19:17:37.984Z,99.99
2022-11-24T19:18:37.977Z,99.99
2022-11-24T19:19:37.969Z,99.99
2022-11-24T19:20:37.970Z,99.99
2022-11-24T19:21:37.959Z,99.99
2022-11-24T19:22:37.947Z,99.99
2022-11-24T19:23:37.941Z,99.99
2022-11-24T19:24:37.930Z,99.99
2022-11-24T19:25:37.927Z,99.99
2022-11-24T19:26:37.928Z,99.99
2022-11-24T19:27:37.913Z,99.99
2022-11-24T19:28:37.909Z,99.99
2022-11-24T19:29:42.826Z,99.99
2022-11-24T19:30:37.887Z,99.99
2022-11-24T19:31:37.936Z,99.99
2022-11-24T19:32:37.876Z,99.99
2022-11-24T19:33:37.865Z,99.99
2022-11-24T19:34:38.019Z,99.99
2022-11-24T19:35:37.853Z,99.99
2022-11-24T19:36:37.859Z,99.99
2022-11-24T19:37:37.834Z,99.99
2022-11-24T19:38:37.833Z,99.99
2022-11-24T19:39:37.818Z,99.99
2022-11-24T19:40:37.819Z,99.99
2022-11-24T19:41:37.806Z,99.99
2022-11-24T19:42:37.794Z,99.99
2022-11-24T19:43:37.792Z,99.99
2022-11-24T19:44:37.783Z,99.99
2022-11-24T19:45:37.901Z,99.99
2022-11-24T19:46:37.767Z,99.99
2022-11-24T19:47:37.758Z,99.99
2022-11-24T19:48:37.755Z,99.99
2022-11-24T19:49:37.740Z,99.99
2022-11-24T19:50:37.733Z,99.99
2022-11-24T19:51:37.732Z,99.99
2022-11-24T19:52:37.715Z,99.99
2022-11-24T19:53:37.714Z,99.99
2022-11-24T19:54:37.818Z,99.99
2022-11-24T19:55:37.697Z,99.99
2022-11-24T19:56:37.692Z,99.99
2022-11-24T19:57:37.681Z,99.99
2022-11-24T19:58:37.666Z,99.99
2022-11-24T19:59:37.659Z,99.99
2022-11-24T20:00:37.658Z,99.99
2022-11-24T20:01:37.722Z,99.99
2022-11-24T20:02:37.691Z,99.99
2022-11-24T20:03:37.640Z,99.99
2022-11-24T20:04:37.812Z,99.99
2022-11-24T20:05:37.612Z,99.99
2022-11-24T20:06:37.609Z,99.99
2022-11-24T20:07:37.631Z,99.99
2022-11-24T20:08:37.590Z,99.99
2022-11-24T20:09:37.578Z,99.99
2022-11-24T20:10:37.573Z,99.99
2022-11-24T20:11:37.667Z,99.99
2022-11-24T20:12:37.565Z,99.99
2022-11-24T20:13:37.548Z,99.99
2022-11-24T20:14:37.615Z,99.99
2022-11-24T20:15:37.528Z,99.99
2022-11-24T20:16:37.620Z,99.99
2022-11-24T20:17:37.516Z,99.99
2022-11-24T20:18:41.721Z,99.99
2022-11-24T20:19:37.496Z,99.99
2022-11-24T20:20:37.488Z,99.99
2022-11-24T20:21:37.586Z,99.99
2022-11-24T20:22:37.470Z,99.99
2022-11-24T20:23:37.467Z,99.99
2022-11-24T20:24:37.709Z,99.99
2022-11-24T20:25:37.451Z,99.99
2022-11-24T20:26:37.445Z,99.99
2022-11-24T20:27:37.427Z,99.99
2022-11-24T20:28:37.424Z,99.99
2022-11-24T20:29:39.438Z,99.99
2022-11-24T20:30:37.411Z,99.99
2022-11-24T20:31:37.455Z,99.99
2022-11-24T20:32:37.395Z,99.99
2022-11-24T20:33:37.389Z,99.99
2022-11-24T20:34:37.570Z,99.99
2022-11-24T20:35:37.362Z,99.99
2022-11-24T20:36:37.356Z,99.99
2022-11-24T20:37:37.350Z,99.99
2022-11-24T20:38:37.353Z,99.99
2022-11-24T20:39:37.336Z,99.99
2022-11-24T20:40:37.325Z,99.99
2022-11-24T20:41:37.320Z,99.99
2022-11-24T20:42:37.305Z,99.99
2022-11-24T20:43:37.298Z,99.99